sensor_id;sensor_type;location;lat;lon;timestamp;pressure;altitude;pressure_sealevel;temperature;humidity
60373;BME280;46216;52.220;5.134;2023-05-10T00:01:37;101014.47;;;13.42;100.00
60373;BME280;46216;52.220;5.134;2023-05-10T00:04:02;101009.13;;;13.42;100.00
60373;BME280;46216;52.220;5.134;2023-05-10T00:06:28;101003.75;;;13.42;100.00
60373;BME280;46216;52.220;5.134;2023-05-10T00:08:53;101004.13;;;13.37;100.00
60373;BME280;46216;52.220;5.134;2023-05-10T00:11:18;101004.25;;;13.36;100.00
60373;BME280;46216;52.220;5.134;2023-05-10T00:13:44;101004.38;;;13.34;100.00
60373;BME280;46216;52.220;5.134;2023-05-10T00:16:09;101000.00;;;13.33;100.00
60373;BME280;46216;52.220;5.134;2023-05-10T00:18:35;101000.97;;;13.32;100.00
60373;BME280;46216;52.220;5.134;2023-05-10T00:21:00;100996.47;;;13.33;100.00
60373;BME280;46216;52.220;5.134;2023-05-10T00:23:25;101001.09;;;13.31;100.00
60373;BME280;46216;52.220;5.134;2023-05-10T00:25:50;100998.56;;;13.29;100.00
60373;BME280;46216;52.220;5.134;2023-05-10T00:28:16;101004.75;;;13.30;100.00
60373;BME280;46216;52.220;5.134;2023-05-10T00:30:41;101004.16;;;13.26;100.00
60373;BME280;46216;52.220;5.134;2023-05-10T00:33:06;101003.53;;;13.22;100.00
60373;BME280;46216;52.220;5.134;2023-05-10T00:35:32;101005.59;;;13.19;100.00
60373;BME280;46216;52.220;5.134;2023-05-10T00:37:57;101003.03;;;13.17;100.00
60373;BME280;46216;52.220;5.134;2023-05-10T00:40:22;101009.38;;;13.16;100.00
60373;BME280;46216;52.220;5.134;2023-05-10T00:42:48;101013.88;;;13.16;100.00
60373;BME280;46216;52.220;5.134;2023-05-10T00:45:13;101005.94;;;13.14;100.00
60373;BME280;46216;52.220;5.134;2023-05-10T00:47:39;101005.34;;;13.11;100.00
60373;BME280;46216;52.220;5.134;2023-05-10T00:50:05;101015.22;;;13.10;100.00
60373;BME280;46216;52.220;5.134;2023-05-10T00:52:31;101020.69;;;13.09;100.00
60373;BME280;46216;52.220;5.134;2023-05-10T00:54:56;101011.22;;;13.05;100.00
60373;BME280;46216;52.220;5.134;2023-05-10T00:57:22;101010.97;;;13.08;100.00
60373;BME280;46216;52.220;5.134;2023-05-10T00:59:47;101016.31;;;13.08;100.00
60373;BME280;46216;52.220;5.134;2023-05-10T01:02:13;101013.75;;;13.06;100.00
60373;BME280;46216;52.220;5.134;2023-05-10T01:04:38;101016.31;;;13.08;100.00
60373;BME280;46216;52.220;5.134;2023-05-10T01:07:04;101018.03;;;13.09;100.00
60373;BME280;46216;52.220;5.134;2023-05-10T01:09:30;101012.53;;;13.10;100.00
60373;BME280;46216;52.220;5.134;2023-05-10T01:11:56;101024.06;;;13.11;100.00
60373;BME280;46216;52.220;5.134;2023-05-10T01:14:21;101014.50;;;13.08;100.00
60373;BME280;46216;52.220;5.134;2023-05-10T01:16:48;101019.84;;;13.08;100.00
60373;BME280;46216;52.220;5.134;2023-05-10T01:19:22;101019.84;;;13.08;100.00
60373;BME280;46216;52.220;5.134;2023-05-10T01:24:57;101013.75;;;13.06;100.00
60373;BME280;46216;52.220;5.134;2023-05-10T01:27:53;101019.09;;;13.06;100.00
60373;BME280;46216;52.220;5.134;2023-05-10T01:32:53;101011.81;;;13.08;100.00
60373;BME280;46216;52.220;5.134;2023-05-10T01:37:50;101010.00;;;13.09;100.00
60373;BME280;46216;52.220;5.134;2023-05-10T01:40:25;101004.03;;;13.05;100.00
60373;BME280;46216;52.220;5.134;2023-05-10T01:42:55;101015.09;;;13.12;100.00
60373;BME280;46216;52.220;5.134;2023-05-10T01:45:46;101015.69;;;13.15;100.00
60373;BME280;46216;52.220;5.134;2023-05-10T01:48:14;101016.16;;;13.20;100.00
60373;BME280;46216;52.220;5.134;2023-05-10T01:50:43;101023.09;;;13.23;100.00
60373;BME280;46216;52.220;5.134;2023-05-10T01:53:09;101015.91;;;13.23;100.00
60373;BME280;46216;52.220;5.134;2023-05-10T01:55:41;101018.72;;;13.22;100.00
60373;BME280;46216;52.220;5.134;2023-05-10T01:58:15;101020.41;;;13.23;100.00
60373;BME280;46216;52.220;5.134;2023-05-10T02:00:44;101021.28;;;13.23;100.00
60373;BME280;46216;52.220;5.134;2023-05-10T02:03:11;101023.00;;;13.24;100.00
60373;BME280;46216;52.220;5.134;2023-05-10T02:05:39;101022.03;;;13.25;100.00
60373;BME280;46216;52.220;5.134;2023-05-10T02:08:07;101019.56;;;13.22;100.00
60373;BME280;46216;52.220;5.134;2023-05-10T02:10:35;101020.66;;;13.20;100.00
60373;BME280;46216;52.220;5.134;2023-05-10T02:13:03;101019.81;;;13.19;100.00
60373;BME280;46216;52.220;5.134;2023-05-10T02:15:31;101027.72;;;13.21;100.00
60373;BME280;46216;52.220;5.134;2023-05-10T02:17:58;101032.97;;;13.22;100.00
60373;BME280;46216;52.220;5.134;2023-05-10T02:20:26;101030.19;;;13.24;100.00
60373;BME280;46216;52.220;5.134;2023-05-10T02:22:53;101038.94;;;13.26;100.00
60373;BME280;46216;52.220;5.134;2023-05-10T02:25:21;101031.97;;;13.23;100.00
60373;BME280;46216;52.220;5.134;2023-05-10T02:27:48;101033.69;;;13.24;100.00
60373;BME280;46216;52.220;5.134;2023-05-10T02:30:14;101040.25;;;13.20;100.00
60373;BME280;46216;52.220;5.134;2023-05-10T02:32:41;101048.16;;;13.22;100.00
60373;BME280;46216;52.220;5.134;2023-05-10T02:35:08;101056.44;;;13.19;100.00
60373;BME280;46216;52.220;5.134;2023-05-10T02:37:35;101042.69;;;13.12;100.00
60373;BME280;46216;52.220;5.134;2023-05-10T02:40:02;101036.59;;;13.10;100.00
60373;BME280;46216;52.220;5.134;2023-05-10T02:42:32;101044.63;;;13.10;100.00
60373;BME280;46216;52.220;5.134;2023-05-10T02:45:05;101042.94;;;13.09;100.00
60373;BME280;46216;52.220;5.134;2023-05-10T02:47:32;101057.41;;;13.07;100.00
60373;BME280;46216;52.220;5.134;2023-05-10T02:49:57;101061.31;;;13.02;100.00
60373;BME280;46216;52.220;5.134;2023-05-10T02:52:27;101059.63;;;13.01;100.00
60373;BME280;46216;52.220;5.134;2023-05-10T02:54:58;101054.63;;;12.97;100.00
60373;BME280;46216;52.220;5.134;2023-05-10T02:57:28;101059.25;;;12.95;100.00
60373;BME280;46216;52.220;5.134;2023-05-10T02:59:56;101060.94;;;12.96;100.00
60373;BME280;46216;52.220;5.134;2023-05-10T03:02:22;101059.25;;;12.95;100.00
60373;BME280;46216;52.220;5.134;2023-05-10T03:04:47;101054.00;;;12.93;100.00
60373;BME280;46216;52.220;5.134;2023-05-10T03:07:12;101052.69;;;12.88;100.00
60373;BME280;46216;52.220;5.134;2023-05-10T03:09:39;101054.38;;;12.89;100.00
60373;BME280;46216;52.220;5.134;2023-05-10T03:12:38;101053.78;;;12.85;100.00
60373;BME280;46216;52.220;5.134;2023-05-10T03:15:13;101053.78;;;12.85;100.00
60373;BME280;46216;52.220;5.134;2023-05-10T03:17:48;101050.97;;;12.87;100.00
60373;BME280;46216;52.220;5.134;2023-05-10T03:20:26;101049.50;;;12.83;100.00
60373;BME280;46216;52.220;5.134;2023-05-10T03:23:07;101051.19;;;12.84;100.00
60373;BME280;46216;52.220;5.134;2023-05-10T03:25:37;101060.22;;;12.83;100.00
60373;BME280;46216;52.220;5.134;2023-05-10T03:28:03;101058.00;;;12.76;100.00
60373;BME280;46216;52.220;5.134;2023-05-10T03:30:29;101058.75;;;12.78;100.00
60373;BME280;46216;52.220;5.134;2023-05-10T03:32:55;101060.69;;;12.76;100.00
60373;BME280;46216;52.220;5.134;2023-05-10T03:35:22;101051.94;;;12.74;100.00
60373;BME280;46216;52.220;5.134;2023-05-10T03:37:48;101064.34;;;12.75;100.00
60373;BME280;46216;52.220;5.134;2023-05-10T03:40:13;101067.25;;;12.72;100.00
60373;BME280;46216;52.220;5.134;2023-05-10T03:42:39;101067.97;;;12.63;100.00
60373;BME280;46216;52.220;5.134;2023-05-10T03:45:05;101070.41;;;12.66;100.00
60373;BME280;46216;52.220;5.134;2023-05-10T03:47:31;101078.56;;;12.65;100.00
60373;BME280;46216;52.220;5.134;2023-05-10T03:49:56;101084.25;;;12.60;100.00
60373;BME280;46216;52.220;5.134;2023-05-10T03:52:22;101067.00;;;12.64;100.00
60373;BME280;46216;52.220;5.134;2023-05-10T03:54:47;101070.41;;;12.66;100.00
60373;BME280;46216;52.220;5.134;2023-05-10T03:57:12;101079.75;;;12.61;100.00
60373;BME280;46216;52.220;5.134;2023-05-10T03:59:38;101073.66;;;12.59;100.00
60373;BME280;46216;52.220;5.134;2023-05-10T04:02:03;101082.31;;;12.62;100.00
60373;BME280;46216;52.220;5.134;2023-05-10T04:04:28;101077.94;;;12.61;100.00
60373;BME280;46216;52.220;5.134;2023-05-10T04:06:53;101076.59;;;12.67;100.00
60373;BME280;46216;52.220;5.134;2023-05-10T04:09:19;101077.69;;;12.64;100.00
60373;BME280;46216;52.220;5.134;2023-05-10T04:11:45;101081.59;;;12.60;100.00
60373;BME280;46216;52.220;5.134;2023-05-10T04:14:10;101084.38;;;12.59;100.00
60373;BME280;46216;52.220;5.134;2023-05-10T04:16:35;101076.25;;;12.60;100.00
60373;BME280;46216;52.220;5.134;2023-05-10T04:19:01;101082.44;;;12.61;100.00
60373;BME280;46216;52.220;5.134;2023-05-10T04:21:26;101084.13;;;12.62;100.00
60373;BME280;46216;52.220;5.134;2023-05-10T04:23:51;101077.09;;;12.61;100.00
60373;BME280;46216;52.220;5.134;2023-05-10T04:26:17;101084.25;;;12.60;100.00
60373;BME280;46216;52.220;5.134;2023-05-10T04:28:42;101091.91;;;12.65;100.00
60373;BME280;46216;52.220;5.134;2023-05-10T04:31:09;101090.31;;;12.62;100.00
60373;BME280;46216;52.220;5.134;2023-05-10T04:33:35;101086.69;;;12.63;100.00
60373;BME280;46216;52.220;5.134;2023-05-10T04:36:01;101094.59;;;12.65;100.00
60373;BME280;46216;52.220;5.134;2023-05-10T04:38:27;101090.84;;;12.67;100.00
60373;BME280;46216;52.220;5.134;2023-05-10T04:40:52;101088.16;;;12.67;100.00
60373;BME280;46216;52.220;5.134;2023-05-10T04:43:18;101091.78;;;12.66;100.00
60373;BME280;46216;52.220;5.134;2023-05-10T04:45:43;101089.13;;;12.66;100.00
60373;BME280;46216;52.220;5.134;2023-05-10T04:48:08;101090.09;;;12.65;100.00
60373;BME280;46216;52.220;5.134;2023-05-10T04:50:34;101093.97;;;12.61;100.00
60373;BME280;46216;52.220;5.134;2023-05-10T04:52:59;101088.03;;;12.58;100.00
60373;BME280;46216;52.220;5.134;2023-05-10T04:55:25;101089.94;;;12.55;100.00
60373;BME280;46216;52.220;5.134;2023-05-10T04:57:52;101100.41;;;12.59;100.00
60373;BME280;46216;52.220;5.134;2023-05-10T05:00:17;101101.84;;;12.51;100.00
60373;BME280;46216;52.220;5.134;2023-05-10T05:02:43;101100.88;;;12.52;100.00
60373;BME280;46216;52.220;5.134;2023-05-10T05:05:10;101101.09;;;12.49;100.00
60373;BME280;46216;52.220;5.134;2023-05-10T05:07:35;101113.41;;;12.52;100.00
60373;BME280;46216;52.220;5.134;2023-05-10T05:10:01;101106.44;;;12.49;100.00
60373;BME280;46216;52.220;5.134;2023-05-10T05:12:26;101119.19;;;12.46;100.00
60373;BME280;46216;52.220;5.134;2023-05-10T05:14:51;101115.81;;;12.44;100.00
60373;BME280;46216;52.220;5.134;2023-05-10T05:17:17;101122.09;;;12.43;100.00
60373;BME280;46216;52.220;5.134;2023-05-10T05:19:42;101121.63;;;12.38;100.00
60373;BME280;46216;52.220;5.134;2023-05-10T05:22:07;101129.72;;;12.36;100.00
60373;BME280;46216;52.220;5.134;2023-05-10T05:24:36;101129.50;;;12.39;100.00
60373;BME280;46216;52.220;5.134;2023-05-10T05:27:05;101133.28;;;12.37;100.00
60373;BME280;46216;52.220;5.134;2023-05-10T05:29:31;101129.63;;;12.38;100.00
60373;BME280;46216;52.220;5.134;2023-05-10T05:31:56;101139.97;;;12.42;100.00
60373;BME280;46216;52.220;5.134;2023-05-10T05:34:21;101139.97;;;12.42;100.00
60373;BME280;46216;52.220;5.134;2023-05-10T05:36:47;101139.03;;;12.43;100.00
60373;BME280;46216;52.220;5.134;2023-05-10T05:39:13;101145.09;;;12.45;100.00
60373;BME280;46216;52.220;5.134;2023-05-10T05:41:38;101150.34;;;12.47;100.00
60373;BME280;46216;52.220;5.134;2023-05-10T05:44:04;101153.00;;;12.47;100.00
60373;BME280;46216;52.220;5.134;2023-05-10T05:46:29;101151.78;;;12.51;100.00
60373;BME280;46216;52.220;5.134;2023-05-10T05:48:55;101152.66;;;12.51;100.00
60373;BME280;46216;52.220;5.134;2023-05-10T05:51:20;101162.03;;;12.57;100.00
60373;BME280;46216;52.220;5.134;2023-05-10T05:53:46;101156.69;;;12.57;100.00
60373;BME280;46216;52.220;5.134;2023-05-10T05:56:11;101160.06;;;12.59;100.00
60373;BME280;46216;52.220;5.134;2023-05-10T05:58:36;101161.91;;;12.59;100.00
60373;BME280;46216;52.220;5.134;2023-05-10T06:01:02;101155.81;;;12.57;100.00
60373;BME280;46216;52.220;5.134;2023-05-10T06:03:28;101158.38;;;12.58;100.00
60373;BME280;46216;52.220;5.134;2023-05-10T06:05:53;101157.38;;;12.48;100.00
60373;BME280;46216;52.220;5.134;2023-05-10T06:08:19;101166.16;;;12.50;100.00
60373;BME280;46216;52.220;5.134;2023-05-10T06:10:45;101168.69;;;12.51;100.00
60373;BME280;46216;52.220;5.134;2023-05-10T06:13:10;101166.00;;;12.51;100.00
60373;BME280;46216;52.220;5.134;2023-05-10T06:15:36;101168.00;;;12.61;100.00
60373;BME280;46216;52.220;5.134;2023-05-10T06:18:01;101168.22;;;12.58;100.00
60373;BME280;46216;52.220;5.134;2023-05-10T06:20:26;101167.38;;;12.57;100.00
60373;BME280;46216;52.220;5.134;2023-05-10T06:22:51;101178.78;;;12.59;100.00
60373;BME280;46216;52.220;5.134;2023-05-10T06:25:17;101172.22;;;12.52;100.00
60373;BME280;46216;52.220;5.134;2023-05-10T06:27:43;101173.81;;;12.54;100.00
60373;BME280;46216;52.220;5.134;2023-05-10T06:30:09;101174.41;;;12.58;100.00
60373;BME280;46216;52.220;5.134;2023-05-10T06:32:35;101175.16;;;12.60;100.00
60373;BME280;46216;52.220;5.134;2023-05-10T06:35:00;101171.28;;;12.64;100.00
60373;BME280;46216;52.220;5.134;2023-05-10T06:37:25;101176.41;;;12.67;100.00
60373;BME280;46216;52.220;5.134;2023-05-10T06:39:51;101172.38;;;12.73;100.00
60373;BME280;46216;52.220;5.134;2023-05-10T06:42:16;101177.91;;;12.83;100.00
60373;BME280;46216;52.220;5.134;2023-05-10T06:44:41;101175.72;;;12.88;100.00
60373;BME280;46216;52.220;5.134;2023-05-10T06:47:07;101175.97;;;12.96;100.00
60373;BME280;46216;52.220;5.134;2023-05-10T06:49:32;101177.56;;;12.98;100.00
60373;BME280;46216;52.220;5.134;2023-05-10T06:51:57;101174.53;;;13.03;100.00
60373;BME280;46216;52.220;5.134;2023-05-10T06:54:23;101184.25;;;13.04;100.00
60373;BME280;46216;52.220;5.134;2023-05-10T06:56:48;101181.34;;;13.07;100.00
60373;BME280;46216;52.220;5.134;2023-05-10T06:59:14;101188.28;;;12.98;100.00
60373;BME280;46216;52.220;5.134;2023-05-10T07:01:41;101188.88;;;13.02;100.00
60373;BME280;46216;52.220;5.134;2023-05-10T07:04:06;101192.53;;;13.01;100.00
60373;BME280;46216;52.220;5.134;2023-05-10T07:06:32;101189.97;;;12.99;100.00
60373;BME280;46216;52.220;5.134;2023-05-10T07:08:58;101193.63;;;12.98;100.00
60373;BME280;46216;52.220;5.134;2023-05-10T07:11:24;101200.06;;;12.96;100.00
60373;BME280;46216;52.220;5.134;2023-05-10T07:13:49;101202.88;;;12.94;100.00
60373;BME280;46216;52.220;5.134;2023-05-10T07:16:14;101202.97;;;12.93;100.00
60373;BME280;46216;52.220;5.134;2023-05-10T07:18:40;101203.72;;;12.95;100.00
60373;BME280;46216;52.220;5.134;2023-05-10T07:21:05;101202.72;;;12.96;100.00
60373;BME280;46216;52.220;5.134;2023-05-10T07:23:31;101200.81;;;12.98;100.00
60373;BME280;46216;52.220;5.134;2023-05-10T07:25:56;101208.59;;;13.01;100.00
60373;BME280;46216;52.220;5.134;2023-05-10T07:28:23;101215.50;;;13.03;100.00
60373;BME280;46216;52.220;5.134;2023-05-10T07:30:49;101217.56;;;13.00;100.00
60373;BME280;46216;52.220;5.134;2023-05-10T07:33:15;101214.78;;;13.01;100.00
60373;BME280;46216;52.220;5.134;2023-05-10T07:35:41;101226.34;;;13.02;100.00
60373;BME280;46216;52.220;5.134;2023-05-10T07:38:07;101230.50;;;13.06;100.00
60373;BME280;46216;52.220;5.134;2023-05-10T07:40:32;101234.16;;;13.05;100.00
60373;BME280;46216;52.220;5.134;2023-05-10T07:42:58;101231.47;;;13.05;100.00
60373;BME280;46216;52.220;5.134;2023-05-10T07:45:23;101233.28;;;13.05;100.00
60373;BME280;46216;52.220;5.134;2023-05-10T07:47:49;101234.00;;;13.07;100.00
60373;BME280;46216;52.220;5.134;2023-05-10T07:50:15;101238.50;;;13.06;100.00
60373;BME280;46216;52.220;5.134;2023-05-10T07:52:40;101234.84;;;13.07;100.00
60373;BME280;46216;52.220;5.134;2023-05-10T07:55:06;101237.44;;;13.09;100.00
60373;BME280;46216;52.220;5.134;2023-05-10T07:57:33;101232.31;;;13.17;100.00
60373;BME280;46216;52.220;5.134;2023-05-10T07:59:59;101235.38;;;13.23;100.00
60373;BME280;46216;52.220;5.134;2023-05-10T08:02:24;101225.94;;;13.31;100.00
60373;BME280;46216;52.220;5.134;2023-05-10T08:04:50;101236.91;;;13.39;100.00
60373;BME280;46216;52.220;5.134;2023-05-10T08:07:15;101237.91;;;13.49;100.00
60373;BME280;46216;52.220;5.134;2023-05-10T08:09:41;101243.84;;;13.64;100.00
60373;BME280;46216;52.220;5.134;2023-05-10T08:12:06;101244.47;;;13.67;100.00
60373;BME280;46216;52.220;5.134;2023-05-10T08:14:32;101249.56;;;13.70;100.00
60373;BME280;46216;52.220;5.134;2023-05-10T08:16:57;101250.09;;;13.76;100.00
60373;BME280;46216;52.220;5.134;2023-05-10T08:19:22;101253.00;;;13.84;100.00
60373;BME280;46216;52.220;5.134;2023-05-10T08:21:48;101256.75;;;13.92;100.00
60373;BME280;46216;52.220;5.134;2023-05-10T08:24:14;101262.84;;;13.94;100.00
60373;BME280;46216;52.220;5.134;2023-05-10T08:26:39;101256.63;;;13.94;100.00
60373;BME280;46216;52.220;5.134;2023-05-10T08:29:05;101263.22;;;14.01;100.00
60373;BME280;46216;52.220;5.134;2023-05-10T08:31:30;101273.06;;;14.12;100.00
60373;BME280;46216;52.220;5.134;2023-05-10T08:33:55;101273.03;;;14.23;100.00
60373;BME280;46216;52.220;5.134;2023-05-10T08:36:21;101266.81;;;14.34;100.00
60373;BME280;46216;52.220;5.134;2023-05-10T08:38:52;101270.44;;;14.44;100.00
60373;BME280;46216;52.220;5.134;2023-05-10T08:41:21;101273.13;;;14.44;100.00
60373;BME280;46216;52.220;5.134;2023-05-10T08:43:47;101276.06;;;14.41;100.00
60373;BME280;46216;52.220;5.134;2023-05-10T08:46:17;101279.19;;;14.46;100.00
60373;BME280;46216;52.220;5.134;2023-05-10T08:48:46;101278.50;;;14.44;100.00
60373;BME280;46216;52.220;5.134;2023-05-10T08:51:22;101295.78;;;14.40;100.00
60373;BME280;46216;52.220;5.134;2023-05-10T08:53:49;101289.31;;;14.42;100.00
60373;BME280;46216;52.220;5.134;2023-05-10T08:56:15;101286.66;;;14.42;100.00
60373;BME280;46216;52.220;5.134;2023-05-10T08:58:41;101297.03;;;14.47;100.00
60373;BME280;46216;52.220;5.134;2023-05-10T09:01:07;101291.91;;;14.44;100.00
60373;BME280;46216;52.220;5.134;2023-05-10T09:03:32;101290.31;;;14.41;100.00
60373;BME280;46216;52.220;5.134;2023-05-10T09:05:58;101289.94;;;14.46;100.00
60373;BME280;46216;52.220;5.134;2023-05-10T09:08:24;101287.13;;;14.48;100.00
60373;BME280;46216;52.220;5.134;2023-05-10T09:10:54;101285.09;;;14.51;100.00
60373;BME280;46216;52.220;5.134;2023-05-10T09:13:21;101292.63;;;14.57;100.00
60373;BME280;46216;52.220;5.134;2023-05-10T09:15:47;101280.19;;;14.56;100.00
60373;BME280;46216;52.220;5.134;2023-05-10T09:18:13;101284.06;;;14.63;100.00
60373;BME280;46216;52.220;5.134;2023-05-10T09:20:38;101294.44;;;14.68;100.00
60373;BME280;46216;52.220;5.134;2023-05-10T09:23:04;101299.59;;;14.81;100.00
60373;BME280;46216;52.220;5.134;2023-05-10T09:25:30;101305.41;;;14.97;100.00
60373;BME280;46216;52.220;5.134;2023-05-10T09:27:55;101299.84;;;15.10;100.00
60373;BME280;46216;52.220;5.134;2023-05-10T09:30:25;101303.88;;;15.16;100.00
60373;BME280;46216;52.220;5.134;2023-05-10T09:32:52;101302.88;;;15.17;100.00
60373;BME280;46216;52.220;5.134;2023-05-10T09:35:20;101300.44;;;15.13;100.00
60373;BME280;46216;52.220;5.134;2023-05-10T09:37:51;101302.69;;;15.08;100.00
60373;BME280;46216;52.220;5.134;2023-05-10T09:40:23;101304.03;;;15.03;100.00
60373;BME280;46216;52.220;5.134;2023-05-10T09:45:18;101302.00;;;14.95;100.00
60373;BME280;46216;52.220;5.134;2023-05-10T09:47:44;101310.00;;;15.06;100.00
60373;BME280;46216;52.220;5.134;2023-05-10T09:50:10;101313.63;;;15.17;100.00
60373;BME280;46216;52.220;5.134;2023-05-10T09:52:53;101308.97;;;15.19;100.00
60373;BME280;46216;52.220;5.134;2023-05-10T09:55:22;101310.28;;;15.24;100.00
60373;BME280;46216;52.220;5.134;2023-05-10T09:57:48;101313.69;;;15.26;100.00
60373;BME280;46216;52.220;5.134;2023-05-10T10:00:17;101312.09;;;15.24;100.00
60373;BME280;46216;52.220;5.134;2023-05-10T10:02:45;101317.22;;;15.27;100.00
60373;BME280;46216;52.220;5.134;2023-05-10T10:05:11;101324.84;;;15.22;100.00
60373;BME280;46216;52.220;5.134;2023-05-10T10:07:37;101316.78;;;15.22;100.00
60373;BME280;46216;52.220;5.134;2023-05-10T10:10:02;101315.78;;;15.23;100.00
60373;BME280;46216;52.220;5.134;2023-05-10T10:12:30;101320.63;;;15.29;100.00
60373;BME280;46216;52.220;5.134;2023-05-10T10:14:56;101320.75;;;15.48;100.00
60373;BME280;46216;52.220;5.134;2023-05-10T10:17:25;101325.19;;;15.70;100.00
60373;BME280;46216;52.220;5.134;2023-05-10T10:19:52;101323.28;;;15.92;100.00
60373;BME280;46216;52.220;5.134;2023-05-10T10:22:18;101331.41;;;16.01;100.00
60373;BME280;46216;52.220;5.134;2023-05-10T10:24:44;101325.03;;;16.02;100.00
60373;BME280;46216;52.220;5.134;2023-05-10T10:27:26;101329.16;;;16.06;100.00
60373;BME280;46216;52.220;5.134;2023-05-10T10:30:14;101323.69;;;16.18;100.00
60373;BME280;46216;52.220;5.134;2023-05-10T10:35:29;101317.78;;;16.24;100.00
60373;BME280;46216;52.220;5.134;2023-05-10T10:37:55;101323.47;;;16.30;100.00
60373;BME280;46216;52.220;5.134;2023-05-10T10:42:53;101308.25;;;16.20;100.00
60373;BME280;46216;52.220;5.134;2023-05-10T10:45:19;101319.75;;;16.22;100.00
60373;BME280;46216;52.220;5.134;2023-05-10T10:47:45;101320.75;;;16.21;100.00
60373;BME280;46216;52.220;5.134;2023-05-10T10:50:10;101322.59;;;16.20;100.00
60373;BME280;46216;52.220;5.134;2023-05-10T10:52:41;101319.75;;;16.22;100.00
60373;BME280;46216;52.220;5.134;2023-05-10T10:55:33;101318.84;;;16.12;100.00
60373;BME280;46216;52.220;5.134;2023-05-10T10:57:58;101329.06;;;16.18;100.00
60373;BME280;46216;52.220;5.134;2023-05-10T11:00:32;101324.06;;;16.03;100.00
60373;BME280;46216;52.220;5.134;2023-05-10T11:03:11;101326.03;;;16.01;100.00
60373;BME280;46216;52.220;5.134;2023-05-10T11:05:50;101335.41;;;15.86;100.00
60373;BME280;46216;52.220;5.134;2023-05-10T11:08:30;101330.47;;;15.81;100.00
60373;BME280;46216;52.220;5.134;2023-05-10T11:13:29;101329.59;;;15.81;100.00
60373;BME280;46216;52.220;5.134;2023-05-10T11:15:55;101330.03;;;15.86;100.00
60373;BME280;46216;52.220;5.134;2023-05-10T11:18:27;101343.94;;;15.91;100.00
60373;BME280;46216;52.220;5.134;2023-05-10T11:21:01;101335.16;;;15.89;100.00
60373;BME280;46216;52.220;5.134;2023-05-10T11:23:56;101349.06;;;15.94;100.00
60373;BME280;46216;52.220;5.134;2023-05-10T11:26:41;101347.31;;;15.83;100.00
60373;BME280;46216;52.220;5.134;2023-05-10T11:29:07;101346.25;;;15.75;100.00
60373;BME280;46216;52.220;5.134;2023-05-10T11:31:32;101349.09;;;15.73;100.00
60373;BME280;46216;52.220;5.134;2023-05-10T11:33:59;101343.13;;;15.70;100.00
60373;BME280;46216;52.220;5.134;2023-05-10T11:36:28;101349.47;;;15.69;100.00
60373;BME280;46216;52.220;5.134;2023-05-10T11:38:55;101355.06;;;15.66;100.00
60373;BME280;46216;52.220;5.134;2023-05-10T11:41:22;101349.34;;;15.70;100.00
60373;BME280;46216;52.220;5.134;2023-05-10T11:43:49;101350.38;;;15.79;100.00
60373;BME280;46216;52.220;5.134;2023-05-10T11:46:18;101355.38;;;15.83;100.00
60373;BME280;46216;52.220;5.134;2023-05-10T11:48:45;101352.53;;;15.85;100.00
60373;BME280;46216;52.220;5.134;2023-05-10T11:51:11;101356.91;;;15.86;100.00
60373;BME280;46216;52.220;5.134;2023-05-10T11:53:37;101358.06;;;15.83;100.00
60373;BME280;46216;52.220;5.134;2023-05-10T11:56:07;101361.44;;;15.85;100.00
60373;BME280;46216;52.220;5.134;2023-05-10T11:58:34;101361.13;;;15.79;100.00
60373;BME280;46216;52.220;5.134;2023-05-10T12:01:00;101362.00;;;15.79;100.00
60373;BME280;46216;52.220;5.134;2023-05-10T12:03:27;101369.53;;;15.85;100.00
60373;BME280;46216;52.220;5.134;2023-05-10T12:05:53;101358.75;;;15.85;100.00
60373;BME280;46216;52.220;5.134;2023-05-10T12:08:27;101363.03;;;15.88;100.00
60373;BME280;46216;52.220;5.134;2023-05-10T12:11:03;101365.78;;;15.98;100.00
60373;BME280;46216;52.220;5.134;2023-05-10T12:13:28;101370.31;;;15.97;100.00
60373;BME280;46216;52.220;5.134;2023-05-10T12:15:57;101368.31;;;15.99;100.00
60373;BME280;46216;52.220;5.134;2023-05-10T12:18:23;101371.22;;;16.07;100.00
60373;BME280;46216;52.220;5.134;2023-05-10T12:20:53;101364.72;;;16.10;100.00
60373;BME280;46216;52.220;5.134;2023-05-10T12:23:20;101367.97;;;16.14;100.00
60373;BME280;46216;52.220;5.134;2023-05-10T12:25:45;101371.25;;;16.17;100.00
60373;BME280;46216;52.220;5.134;2023-05-10T12:28:11;101368.56;;;16.17;100.00
60373;BME280;46216;52.220;5.134;2023-05-10T12:30:37;101363.03;;;16.19;100.00
60373;BME280;46216;52.220;5.134;2023-05-10T12:33:09;101366.56;;;16.19;100.00
60373;BME280;46216;52.220;5.134;2023-05-10T12:35:46;101363.13;;;16.07;100.00
60373;BME280;46216;52.220;5.134;2023-05-10T12:38:25;101370.88;;;16.01;100.00
60373;BME280;46216;52.220;5.134;2023-05-10T12:40:51;101370.97;;;15.90;100.00
60373;BME280;46216;52.220;5.134;2023-05-10T12:43:16;101369.78;;;15.82;100.00
60373;BME280;46216;52.220;5.134;2023-05-10T12:45:42;101359.97;;;15.72;100.00
60373;BME280;46216;52.220;5.134;2023-05-10T12:48:07;101378.19;;;15.68;100.00
60373;BME280;46216;52.220;5.134;2023-05-10T12:50:32;101381.88;;;15.67;100.00
60373;BME280;46216;52.220;5.134;2023-05-10T12:52:58;101375.13;;;15.61;100.00
60373;BME280;46216;52.220;5.134;2023-05-10T12:55:23;101386.41;;;15.55;100.00
60373;BME280;46216;52.220;5.134;2023-05-10T12:57:48;101392.31;;;15.49;100.00
60373;BME280;46216;52.220;5.134;2023-05-10T13:00:14;101395.03;;;15.38;100.00